createdAt,value
2019-02-27T00:01:42.184Z,99.90
2019-02-27T00:06:34.445Z,99.90
2019-02-27T00:11:27.100Z,99.90
2019-02-27T00:16:19.585Z,99.90
2019-02-27T00:21:12.346Z,99.90
2019-02-27T00:26:08.741Z,99.90
2019-02-27T00:30:58.808Z,99.90
2019-02-27T00:35:51.409Z,99.90
2019-02-27T00:40:44.129Z,99.90
2019-02-27T00:45:39.663Z,99.90
2019-02-27T00:50:30.474Z,99.90
2019-02-27T00:55:23.082Z,99.90
2019-02-27T01:00:18.869Z,99.90
2019-02-27T01:05:11.670Z,99.90
2019-02-27T01:10:05.681Z,99.90
2019-02-27T01:14:58.393Z,99.90
2019-02-27T01:19:51.077Z,99.90
2019-02-27T01:24:45.104Z,99.90
2019-02-27T01:29:37.530Z,99.90
2019-02-27T01:34:30.385Z,99.90
2019-02-27T01:39:23.152Z,99.90
2019-02-27T01:44:15.715Z,99.90
2019-02-27T01:49:08.020Z,99.90
2019-02-27T01:54:00.653Z,99.90
2019-02-27T01:58:53.165Z,99.90
2019-02-27T02:03:47.487Z,99.90
2019-02-27T02:08:40.117Z,99.90
2019-02-27T02:13:35.812Z,99.90
2019-02-27T02:18:49.220Z,99.90
2019-02-27T02:23:59.574Z,99.90
2019-02-27T02:29:11.581Z,99.90
2019-02-27T02:34:26.914Z,99.90
2019-02-27T02:39:28.458Z,99.90
2019-02-27T02:44:26.463Z,99.90
2019-02-27T02:49:21.981Z,99.90
2019-02-27T02:54:26.294Z,99.90
2019-02-27T02:59:50.206Z,99.90
2019-02-27T03:05:00.895Z,99.90
2019-02-27T03:10:13.245Z,99.90
2019-02-27T03:15:28.832Z,99.90
2019-02-27T03:20:40.883Z,99.90
2019-02-27T03:26:09.350Z,99.90
2019-02-27T03:31:18.496Z,99.90
2019-02-27T03:36:19.194Z,99.90
2019-02-27T03:41:22.791Z,99.90
2019-02-27T03:46:17.253Z,99.90
2019-02-27T03:51:24.314Z,99.90
2019-02-27T03:56:33.418Z,99.90
2019-02-27T04:01:46.685Z,99.90
2019-02-27T04:06:56.275Z,99.90
2019-02-27T04:11:48.180Z,99.90
2019-02-27T04:16:40.884Z,99.90
2019-02-27T04:21:33.652Z,99.90
2019-02-27T04:26:26.128Z,99.90
2019-02-27T04:31:18.559Z,99.90
2019-02-27T04:36:12.706Z,99.90
2019-02-27T04:41:05.700Z,99.90
2019-02-27T04:45:57.977Z,99.90
2019-02-27T04:50:50.358Z,99.90
2019-02-27T04:55:43.154Z,99.90
2019-02-27T05:00:35.476Z,99.90
2019-02-27T05:05:28.173Z,99.90
2019-02-27T05:10:20.549Z,99.90
2019-02-27T05:15:14.720Z,99.90
2019-02-27T05:20:11.468Z,99.90
2019-02-27T05:25:02.520Z,99.90
2019-02-27T05:29:54.912Z,99.90
2019-02-27T05:34:49.741Z,99.90
2019-02-27T05:39:41.843Z,99.90
2019-02-27T05:44:34.470Z,99.90
2019-02-27T05:49:27.499Z,99.90
2019-02-27T05:54:20.088Z,99.90
2019-02-27T05:59:12.585Z,99.90
2019-02-27T06:04:05.060Z,99.90
2019-02-27T06:08:57.850Z,99.90
2019-02-27T06:13:50.359Z,99.90
2019-02-27T06:18:42.600Z,99.90
2019-02-27T06:23:35.395Z,99.90
2019-02-27T06:28:29.745Z,99.90
2019-02-27T06:33:22.488Z,99.90
2019-02-27T06:38:15.184Z,99.90
2019-02-27T06:43:07.853Z,99.90
2019-02-27T06:48:00.561Z,99.90
2019-02-27T06:52:53.167Z,99.90
2019-02-27T06:57:45.504Z,99.90
2019-02-27T07:02:37.889Z,99.90
2019-02-27T07:07:31.306Z,99.90
2019-02-27T07:12:24.786Z,99.90
2019-02-27T07:17:17.392Z,99.90
2019-02-27T07:22:12.518Z,99.90
2019-02-27T07:27:04.000Z,99.90
2019-02-27T07:31:57.249Z,99.90
2019-02-27T07:36:49.582Z,99.30
2019-02-27T07:41:42.067Z,95.10
2019-02-27T07:46:35.557Z,93.10
2019-02-27T07:51:28.174Z,87.40
2019-02-27T07:56:20.636Z,81.90
2019-02-27T08:01:13.241Z,78.80
2019-02-27T08:06:05.753Z,75.60
2019-02-27T08:10:58.382Z,71.80
2019-02-27T08:15:50.934Z,68.60
2019-02-27T08:20:43.603Z,64.60
2019-02-27T08:25:36.288Z,63.70
2019-02-27T08:30:29.609Z,59.40
2019-02-27T08:35:22.393Z,58.80
2019-02-27T08:40:15.512Z,56.10
2019-02-27T08:45:19.320Z,55.50
2019-02-27T08:50:11.405Z,53.50
2019-02-27T08:55:05.721Z,52.10
2019-02-27T08:59:58.573Z,51.40
2019-02-27T09:04:50.869Z,50.30
2019-02-27T09:09:43.157Z,50.20
2019-02-27T09:14:35.749Z,49.00
2019-02-27T09:19:28.482Z,46.70
2019-02-27T09:24:21.125Z,47.60
2019-02-27T09:29:18.408Z,46.50
2019-02-27T09:34:08.043Z,44.60
2019-02-27T09:39:00.540Z,43.60
2019-02-27T09:43:52.846Z,42.40
2019-02-27T09:48:45.413Z,41.10
2019-02-27T09:53:37.702Z,39.80
2019-02-27T09:58:30.178Z,39.10
2019-02-27T10:03:22.818Z,37.90
2019-02-27T10:08:15.742Z,37.80
2019-02-27T10:13:08.478Z,36.40
2019-02-27T10:18:00.866Z,34.20
2019-02-27T10:22:53.968Z,33.70
2019-02-27T10:27:47.385Z,32.20
2019-02-27T10:32:40.211Z,32.80
2019-02-27T10:37:32.950Z,32.60
2019-02-27T10:42:25.365Z,32.20
2019-02-27T10:47:17.864Z,31.00
2019-02-27T10:52:10.835Z,29.80
2019-02-27T10:57:03.296Z,30.00
2019-02-27T11:01:55.644Z,29.30
2019-02-27T11:06:47.984Z,28.80
2019-02-27T11:11:40.385Z,28.60
2019-02-27T11:16:32.827Z,28.00
2019-02-27T11:21:25.274Z,27.50
2019-02-27T11:26:17.781Z,27.00
2019-02-27T11:31:11.053Z,26.60
2019-02-27T11:36:05.659Z,26.90
2019-02-27T11:40:58.009Z,26.70
2019-02-27T11:45:50.660Z,27.30
2019-02-27T11:50:43.048Z,26.50
2019-02-27T11:55:35.308Z,26.10
2019-02-27T12:00:29.382Z,25.70
2019-02-27T12:05:22.332Z,25.80
2019-02-27T12:10:20.225Z,26.10
2019-02-27T12:15:15.473Z,26.00
2019-02-27T12:20:09.737Z,26.10
2019-02-27T12:25:02.336Z,25.50
2019-02-27T12:29:54.697Z,25.20
2019-02-27T12:34:47.465Z,25.80
2019-02-27T12:39:39.901Z,26.30
2019-02-27T12:44:34.485Z,25.60
2019-02-27T12:49:26.744Z,27.30
2019-02-27T12:54:19.281Z,27.90
2019-02-27T12:59:11.979Z,28.80
2019-02-27T13:04:04.646Z,28.60
2019-02-27T13:08:57.290Z,28.80
2019-02-27T13:14:09.681Z,29.50
2019-02-27T13:19:06.358Z,30.50
2019-02-27T13:23:56.598Z,30.20
2019-02-27T13:28:49.706Z,32.00
2019-02-27T13:33:42.312Z,33.30
2019-02-27T13:38:34.692Z,30.90
2019-02-27T13:43:27.734Z,31.20
2019-02-27T13:48:20.203Z,30.60
2019-02-27T13:53:12.997Z,28.80
2019-02-27T13:58:05.419Z,28.70
2019-02-27T14:02:58.240Z,30.10
2019-02-27T14:07:51.156Z,29.80
2019-02-27T14:12:43.788Z,29.10
2019-02-27T14:17:36.369Z,29.60
2019-02-27T14:22:28.729Z,28.50
2019-02-27T14:27:21.334Z,29.70
2019-02-27T14:32:14.662Z,31.40
2019-02-27T14:37:07.679Z,31.90
2019-02-27T14:42:00.092Z,33.00
2019-02-27T14:46:52.581Z,33.80
2019-02-27T14:51:45.055Z,34.00
2019-02-27T14:56:37.808Z,35.50
2019-02-27T15:01:30.283Z,36.30
2019-02-27T15:06:22.710Z,35.50
2019-02-27T15:11:15.237Z,35.50
2019-02-27T15:16:07.971Z,36.50
2019-02-27T15:21:00.220Z,37.20
2019-02-27T15:25:52.620Z,37.70
2019-02-27T15:30:46.622Z,38.60
2019-02-27T15:35:39.747Z,39.10
2019-02-27T15:40:32.161Z,39.40
2019-02-27T15:45:25.921Z,39.30
2019-02-27T15:50:29.354Z,39.40
2019-02-27T15:55:21.837Z,39.60
2019-02-27T16:00:20.344Z,39.20
2019-02-27T16:05:14.636Z,41.10
2019-02-27T16:10:13.470Z,43.10
2019-02-27T16:15:09.381Z,44.90
2019-02-27T16:20:01.737Z,46.60
2019-02-27T16:24:54.481Z,47.80
2019-02-27T16:29:47.001Z,47.40
2019-02-27T16:34:39.350Z,49.90
2019-02-27T16:39:32.338Z,51.40
2019-02-27T16:44:25.052Z,53.00
2019-02-27T16:49:17.723Z,54.40
2019-02-27T16:54:10.406Z,55.60
2019-02-27T16:59:07.690Z,56.70
2019-02-27T17:04:00.322Z,58.10
2019-02-27T17:08:50.702Z,59.40
2019-02-27T17:13:43.524Z,61.40
2019-02-27T17:18:36.050Z,63.60
2019-02-27T17:23:28.925Z,65.40
2019-02-27T17:28:21.539Z,67.60
2019-02-27T17:33:15.779Z,68.70
2019-02-27T17:38:10.909Z,70.40
2019-02-27T17:43:02.625Z,72.80
2019-02-27T17:47:55.026Z,74.40
2019-02-27T17:52:49.098Z,76.90
2019-02-27T17:57:42.213Z,79.80
2019-02-27T18:02:34.820Z,82.90
2019-02-27T18:07:34.240Z,85.60
2019-02-27T18:12:21.657Z,87.80
2019-02-27T18:17:14.291Z,89.70
2019-02-27T18:22:07.048Z,90.30
2019-02-27T18:26:59.673Z,91.00
2019-02-27T18:31:52.030Z,91.50
2019-02-27T18:36:46.496Z,92.50
2019-02-27T18:41:39.757Z,93.50
2019-02-27T18:46:32.210Z,94.30
2019-02-27T18:51:24.736Z,94.90
2019-02-27T18:56:17.426Z,95.50
2019-02-27T19:01:10.726Z,96.10
2019-02-27T19:06:03.179Z,96.70
2019-02-27T19:10:55.769Z,97.60
2019-02-27T19:15:48.481Z,98.20
2019-02-27T19:20:44.930Z,99.20
2019-02-27T19:25:37.348Z,99.90
2019-02-27T19:30:30.889Z,99.90
2019-02-27T19:35:23.713Z,99.90
2019-02-27T19:40:20.749Z,99.90
2019-02-27T19:45:13.305Z,99.90
2019-02-27T19:50:11.213Z,99.90
2019-02-27T19:55:02.565Z,99.90
2019-02-27T19:59:58.700Z,99.90
2019-02-27T20:04:48.835Z,99.90
2019-02-27T20:09:41.198Z,99.90
2019-02-27T20:14:36.808Z,99.90
2019-02-27T20:19:29.051Z,99.90
2019-02-27T20:24:22.061Z,99.90
2019-02-27T20:29:14.871Z,99.90
2019-02-27T20:34:10.729Z,99.90
2019-02-27T20:39:03.307Z,99.90
2019-02-27T20:43:55.505Z,99.90
2019-02-27T20:48:47.995Z,99.90
2019-02-27T20:53:40.675Z,99.90
2019-02-27T20:58:33.161Z,99.90
2019-02-27T21:03:27.199Z,99.90
2019-02-27T21:08:20.208Z,99.90
2019-02-27T21:13:16.022Z,99.90
2019-02-27T21:18:07.060Z,99.90
2019-02-27T21:23:00.259Z,99.90
2019-02-27T21:27:53.830Z,99.90
2019-02-27T21:32:46.365Z,99.90
2019-02-27T21:37:44.600Z,99.90
2019-02-27T21:42:32.974Z,99.90
2019-02-27T21:47:25.612Z,99.90
2019-02-27T21:52:21.604Z,99.90
2019-02-27T21:57:11.988Z,99.90
2019-02-27T22:02:04.681Z,99.90
2019-02-27T22:06:58.476Z,99.90
2019-02-27T22:11:51.345Z,99.90
2019-02-27T22:16:43.987Z,99.90
2019-02-27T22:21:36.593Z,99.90
2019-02-27T22:26:29.238Z,99.90
2019-02-27T22:31:21.842Z,99.90
2019-02-27T22:36:14.390Z,99.90
2019-02-27T22:41:09.547Z,99.90
2019-02-27T22:46:00.789Z,99.90
2019-02-27T22:50:53.207Z,99.90
2019-02-27T22:55:46.177Z,99.90
2019-02-27T23:00:56.358Z,99.90
2019-02-27T23:05:48.529Z,99.90
2019-02-27T23:10:41.165Z,99.90
2019-02-27T23:15:33.724Z,99.90
2019-02-27T23:20:26.218Z,99.90
2019-02-27T23:25:18.772Z,99.90
2019-02-27T23:30:15.954Z,99.90
2019-02-27T23:35:06.512Z,99.90
2019-02-27T23:39:58.685Z,99.90
2019-02-27T23:44:51.254Z,99.90
2019-02-27T23:49:43.780Z,99.90
2019-02-27T23:54:36.632Z,99.90
2019-02-27T23:59:28.912Z,99.90
